BOX01 BGSF-EGAA
Flight info
| Callsign | BOX01 |
|---|---|
| Flight time | 3h 18m |
| Altitude | 39000 |
| Route | WUTAN1B WUTAN UW28 DA DCT ANABI DCT EPENI/N0486F390 DCT MIMKU DCT AMCON |
| Aircraft | B77L/H-SDE1E2E3FGHIJ2J3J4J5M1RWXY/LB1D1 |
Departure
| Time | 2026-04-10 10:38 |
|---|---|
| Airport | Kangerlussuaq International Airport (BGSF) |
Arrival
| Time | 2026-04-10 13:57 |
|---|---|
| Airport | Belfast International Airport (EGAA) |
| Time | Latitude | Longitude | Altitude | Speed | Heading |
|---|---|---|---|---|---|
| 2026-04-10 10:22 | 67.00819 | -50.71035 | 146 ft | 0 kts | 156° |
| 2026-04-10 10:26 | 67.00825 | -50.71041 | 146 ft | 2 kts | 156° |
| 2026-04-10 10:27 | 67.00843 | -50.71061 | 146 ft | 3 kts | 153° |
| 2026-04-10 10:27 | 67.00854 | -50.71079 | 146 ft | 3 kts | 116° |
| 2026-04-10 10:27 | 67.00858 | -50.71090 | 146 ft | 2 kts | 68° |
| 2026-04-10 10:27 | 67.00854 | -50.71113 | 146 ft | 2 kts | 62° |
| 2026-04-10 10:28 | 67.00844 | -50.71157 | 145 ft | 3 kts | 62° |
| 2026-04-10 10:28 | 67.00840 | -50.71176 | 145 ft | 0 kts | 62° |
| 2026-04-10 10:33 | 67.00853 | -50.71118 | 146 ft | 9 kts | 62° |
| 2026-04-10 10:33 | 67.00897 | -50.70910 | 148 ft | 12 kts | 58° |
| 2026-04-10 10:33 | 67.00962 | -50.70779 | 150 ft | 12 kts | 32° |
| 2026-04-10 10:34 | 67.01017 | -50.70622 | 152 ft | 12 kts | 61° |
| 2026-04-10 10:34 | 67.01080 | -50.70330 | 155 ft | 29 kts | 61° |
| 2026-04-10 10:34 | 67.01160 | -50.69950 | 160 ft | 21 kts | 62° |
| 2026-04-10 10:34 | 67.01230 | -50.69617 | 163 ft | 21 kts | 61° |
| 2026-04-10 10:35 | 67.01337 | -50.69359 | 167 ft | 21 kts | 38° |
| 2026-04-10 10:35 | 67.01456 | -50.69137 | 170 ft | 21 kts | 33° |
| 2026-04-10 10:35 | 67.01565 | -50.68963 | 173 ft | 14 kts | 32° |
| 2026-04-10 10:35 | 67.01592 | -50.68920 | 174 ft | 0 kts | 32° |
| 2026-04-10 10:37 | 67.01601 | -50.68905 | 174 ft | 4 kts | 32° |
| 2026-04-10 10:37 | 67.01648 | -50.68831 | 176 ft | 11 kts | 32° |
| 2026-04-10 10:37 | 67.01697 | -50.68892 | 175 ft | 11 kts | 258° |
| 2026-04-10 10:37 | 67.01645 | -50.69150 | 172 ft | 28 kts | 241° |
| 2026-04-10 10:38 | 67.01431 | -50.70160 | 159 ft | 101 kts | 242° |
| 2026-04-10 10:38 | 67.00992 | -50.72235 | 144 ft | 160 kts | 241° |
| 2026-04-10 10:38 | 67.00449 | -50.74794 | 535 ft | 168 kts | 241° |
| 2026-04-10 10:38 | 66.99868 | -50.77464 | 997 ft | 175 kts | 240° |
| 2026-04-10 10:39 | 66.99228 | -50.80135 | 1638 ft | 179 kts | 231° |
| 2026-04-10 10:39 | 66.98397 | -50.82527 | 2376 ft | 181 kts | 227° |
| 2026-04-10 10:39 | 66.97553 | -50.85167 | 2609 ft | 201 kts | 233° |
| 2026-04-10 10:39 | 66.96683 | -50.88230 | 2818 ft | 226 kts | 234° |
| 2026-04-10 10:40 | 66.95740 | -50.91630 | 3240 ft | 240 kts | 233° |
| 2026-04-10 10:40 | 66.94415 | -50.94232 | 3736 ft | 249 kts | 197° |
| 2026-04-10 10:40 | 66.92694 | -50.94173 | 4454 ft | 255 kts | 160° |
| 2026-04-10 10:40 | 66.91227 | -50.91634 | 5202 ft | 261 kts | 132° |
| 2026-04-10 10:41 | 66.90282 | -50.87650 | 5857 ft | 269 kts | 111° |
| 2026-04-10 10:41 | 66.89905 | -50.82954 | 6494 ft | 274 kts | 93° |
| 2026-04-10 10:41 | 66.89869 | -50.78091 | 7225 ft | 275 kts | 89° |
| 2026-04-10 10:41 | 66.89900 | -50.73227 | 8025 ft | 275 kts | 88° |
| 2026-04-10 10:42 | 66.89935 | -50.68339 | 8795 ft | 277 kts | 88° |
| 2026-04-10 10:42 | 66.89959 | -50.63423 | 9545 ft | 279 kts | 89° |
| 2026-04-10 10:42 | 66.89971 | -50.58466 | 10253 ft | 282 kts | 89° |
| 2026-04-10 10:42 | 66.89973 | -50.53340 | 10579 ft | 300 kts | 89° |
| 2026-04-10 10:43 | 66.89966 | -50.47825 | 10810 ft | 322 kts | 90° |
| 2026-04-10 10:43 | 66.89950 | -50.41909 | 11008 ft | 346 kts | 90° |
| 2026-04-10 10:43 | 66.89923 | -50.35640 | 11468 ft | 360 kts | 90° |
| 2026-04-10 10:43 | 66.89892 | -50.29189 | 12206 ft | 368 kts | 90° |
| 2026-04-10 10:44 | 66.89858 | -50.22719 | 13104 ft | 372 kts | 91° |
| 2026-04-10 10:44 | 66.89818 | -50.16088 | 13992 ft | 376 kts | 91° |
| 2026-04-10 10:44 | 66.89774 | -50.09396 | 14777 ft | 380 kts | 91° |
| 2026-04-10 10:44 | 66.89727 | -50.02617 | 15593 ft | 384 kts | 91° |
| 2026-04-10 10:45 | 66.89676 | -49.95776 | 16365 ft | 389 kts | 91° |
| 2026-04-10 10:45 | 66.89622 | -49.88859 | 17175 ft | 392 kts | 91° |
| 2026-04-10 10:45 | 66.89567 | -49.81870 | 17919 ft | 398 kts | 91° |
| 2026-04-10 10:45 | 66.89507 | -49.74785 | 18643 ft | 402 kts | 91° |
| 2026-04-10 10:46 | 66.89435 | -49.67649 | 19341 ft | 404 kts | 92° |
| 2026-04-10 10:46 | 66.89157 | -49.60513 | 20071 ft | 406 kts | 98° |
| 2026-04-10 10:46 | 66.88665 | -49.53407 | 20703 ft | 410 kts | 100° |
| 2026-04-10 10:46 | 66.88135 | -49.46250 | 21365 ft | 413 kts | 100° |
| 2026-04-10 10:47 | 66.87627 | -49.39026 | 22051 ft | 416 kts | 99° |
| 2026-04-10 10:47 | 66.87303 | -49.34216 | 22476 ft | 419 kts | 99° |
| 2026-04-10 10:47 | 66.86822 | -49.26876 | 23082 ft | 423 kts | 98° |
| 2026-04-10 10:47 | 66.86344 | -49.19459 | 23735 ft | 426 kts | 98° |
| 2026-04-10 10:48 | 66.85699 | -49.09569 | 24413 ft | 431 kts | 99° |
| 2026-04-10 10:48 | 66.85201 | -49.02034 | 24915 ft | 434 kts | 99° |
| 2026-04-10 10:48 | 66.84859 | -48.96912 | 25314 ft | 435 kts | 99° |
| 2026-04-10 10:48 | 66.84347 | -48.89299 | 25792 ft | 439 kts | 99° |
| 2026-04-10 10:49 | 66.83826 | -48.81615 | 26264 ft | 443 kts | 99° |
| 2026-04-10 10:49 | 66.83299 | -48.73889 | 26809 ft | 445 kts | 99° |
| 2026-04-10 10:49 | 66.82764 | -48.66102 | 27293 ft | 449 kts | 99° |
| 2026-04-10 10:49 | 66.82223 | -48.58272 | 27752 ft | 453 kts | 99° |
| 2026-04-10 10:50 | 66.81679 | -48.50464 | 28209 ft | 456 kts | 99° |
| 2026-04-10 10:50 | 66.81121 | -48.42519 | 28673 ft | 459 kts | 99° |
| 2026-04-10 10:50 | 66.80555 | -48.34509 | 29101 ft | 462 kts | 99° |
| 2026-04-10 10:50 | 66.79982 | -48.26465 | 29510 ft | 465 kts | 99° |
| 2026-04-10 10:51 | 66.79401 | -48.18370 | 29914 ft | 468 kts | 99° |
| 2026-04-10 10:51 | 66.78814 | -48.10259 | 30354 ft | 468 kts | 100° |
| 2026-04-10 10:51 | 66.78224 | -48.02162 | 30795 ft | 468 kts | 100° |
| 2026-04-10 10:51 | 66.77629 | -47.94056 | 31198 ft | 468 kts | 100° |
| 2026-04-10 10:52 | 66.77028 | -47.85937 | 31608 ft | 468 kts | 100° |
| 2026-04-10 10:52 | 66.76426 | -47.77853 | 32005 ft | 467 kts | 100° |
| 2026-04-10 10:52 | 66.75818 | -47.69763 | 32397 ft | 467 kts | 101° |
| 2026-04-10 10:52 | 66.75206 | -47.61664 | 32768 ft | 468 kts | 101° |
| 2026-04-10 10:53 | 66.74590 | -47.53575 | 33156 ft | 468 kts | 101° |
| 2026-04-10 10:53 | 66.73979 | -47.45606 | 33543 ft | 467 kts | 101° |
| 2026-04-10 10:53 | 66.73356 | -47.37539 | 33909 ft | 467 kts | 101° |
| 2026-04-10 10:53 | 66.72728 | -47.29468 | 34228 ft | 468 kts | 101° |
| 2026-04-10 10:54 | 66.72096 | -47.21396 | 34508 ft | 468 kts | 102° |
| 2026-04-10 10:54 | 66.71461 | -47.13339 | 34784 ft | 468 kts | 102° |
| 2026-04-10 10:54 | 66.70822 | -47.05270 | 35051 ft | 468 kts | 102° |
| 2026-04-10 10:54 | 66.70179 | -46.97219 | 35306 ft | 468 kts | 102° |
| 2026-04-10 10:55 | 66.69528 | -46.89148 | 35564 ft | 469 kts | 102° |
| 2026-04-10 10:55 | 66.68870 | -46.81064 | 35824 ft | 468 kts | 102° |
| 2026-04-10 10:55 | 66.68210 | -46.73007 | 36064 ft | 469 kts | 102° |
| 2026-04-10 10:55 | 66.67547 | -46.64967 | 36305 ft | 469 kts | 102° |
| 2026-04-10 10:56 | 66.66878 | -46.56893 | 36546 ft | 469 kts | 102° |
| 2026-04-10 10:56 | 66.66209 | -46.48871 | 36881 ft | 466 kts | 102° |
| 2026-04-10 10:56 | 66.65549 | -46.41005 | 37313 ft | 462 kts | 103° |
| 2026-04-10 10:56 | 66.64872 | -46.32991 | 37577 ft | 462 kts | 103° |
| 2026-04-10 10:57 | 66.64196 | -46.25037 | 37657 ft | 466 kts | 103° |
| 2026-04-10 10:57 | 66.62827 | -46.09085 | 37832 ft | 471 kts | 103° |
| 2026-04-10 10:57 | 66.62128 | -46.01018 | 38000 ft | 472 kts | 103° |
| 2026-04-10 10:58 | 66.61423 | -45.92940 | 38139 ft | 473 kts | 103° |
| 2026-04-10 10:58 | 66.60713 | -45.84842 | 38262 ft | 475 kts | 103° |
| 2026-04-10 10:58 | 66.59996 | -45.76724 | 38374 ft | 476 kts | 103° |
| 2026-04-10 10:59 | 66.58540 | -45.60407 | 38555 ft | 479 kts | 103° |
| 2026-04-10 10:59 | 66.57806 | -45.52251 | 38659 ft | 480 kts | 104° |
| 2026-04-10 10:59 | 66.57062 | -45.44041 | 38747 ft | 481 kts | 104° |
| 2026-04-10 11:00 | 66.55559 | -45.27619 | 38888 ft | 483 kts | 104° |
| 2026-04-10 11:00 | 66.54033 | -45.11144 | 38990 ft | 485 kts | 104° |
| 2026-04-10 11:01 | 66.52483 | -44.94625 | 38984 ft | 487 kts | 104° |
| 2026-04-10 11:01 | 66.50922 | -44.78192 | 38977 ft | 487 kts | 104° |
| 2026-04-10 11:02 | 66.49335 | -44.61685 | 38956 ft | 487 kts | 104° |
| 2026-04-10 11:02 | 66.47735 | -44.45250 | 38940 ft | 484 kts | 105° |
| 2026-04-10 11:03 | 66.46130 | -44.28956 | 38918 ft | 480 kts | 105° |
| 2026-04-10 11:03 | 66.44517 | -44.12773 | 38904 ft | 478 kts | 105° |
| 2026-04-10 11:04 | 66.42891 | -43.96652 | 38886 ft | 478 kts | 105° |
| 2026-04-10 11:04 | 66.41251 | -43.80574 | 38869 ft | 479 kts | 105° |
| 2026-04-10 11:05 | 66.38745 | -43.56357 | 38851 ft | 481 kts | 105° |
| 2026-04-10 11:05 | 66.37060 | -43.40294 | 38847 ft | 483 kts | 105° |
| 2026-04-10 11:06 | 66.35337 | -43.24053 | 38830 ft | 485 kts | 106° |
| 2026-04-10 11:06 | 66.33593 | -43.07804 | 38826 ft | 486 kts | 106° |
| 2026-04-10 11:07 | 66.31829 | -42.91538 | 38825 ft | 487 kts | 106° |
| 2026-04-10 11:07 | 66.30048 | -42.75298 | 38815 ft | 486 kts | 106° |
| 2026-04-10 11:08 | 66.28252 | -42.59105 | 38809 ft | 486 kts | 106° |
| 2026-04-10 11:08 | 66.26444 | -42.42970 | 38801 ft | 485 kts | 106° |
| 2026-04-10 11:09 | 66.24622 | -42.26882 | 38792 ft | 483 kts | 107° |
| 2026-04-10 11:09 | 66.22789 | -42.10873 | 38789 ft | 483 kts | 107° |
| 2026-04-10 11:10 | 66.20951 | -41.94986 | 38774 ft | 482 kts | 107° |
| 2026-04-10 11:10 | 66.19088 | -41.79045 | 38766 ft | 481 kts | 107° |
| 2026-04-10 11:11 | 66.17212 | -41.63150 | 38754 ft | 481 kts | 107° |
| 2026-04-10 11:11 | 66.15318 | -41.47269 | 38741 ft | 481 kts | 107° |
| 2026-04-10 11:12 | 66.13408 | -41.31418 | 38734 ft | 481 kts | 107° |
| 2026-04-10 11:12 | 66.11481 | -41.15577 | 38723 ft | 482 kts | 107° |
| 2026-04-10 11:13 | 66.09536 | -40.99753 | 38717 ft | 482 kts | 108° |
| 2026-04-10 11:13 | 66.07575 | -40.83945 | 38719 ft | 483 kts | 108° |
| 2026-04-10 11:14 | 66.05594 | -40.68140 | 38709 ft | 483 kts | 108° |
| 2026-04-10 11:14 | 66.03610 | -40.52450 | 38714 ft | 483 kts | 108° |
| 2026-04-10 11:15 | 66.01584 | -40.36588 | 38718 ft | 483 kts | 108° |
| 2026-04-10 11:15 | 65.99569 | -40.20959 | 38705 ft | 483 kts | 108° |
| 2026-04-10 11:16 | 65.97525 | -40.05226 | 38710 ft | 483 kts | 108° |
| 2026-04-10 11:16 | 65.95459 | -39.89529 | 38701 ft | 483 kts | 109° |
| 2026-04-10 11:17 | 65.93372 | -39.73852 | 38695 ft | 484 kts | 109° |
| 2026-04-10 11:17 | 65.91267 | -39.58171 | 38676 ft | 484 kts | 109° |
| 2026-04-10 11:18 | 65.89161 | -39.42612 | 38682 ft | 485 kts | 109° |
| 2026-04-10 11:18 | 65.87024 | -39.26958 | 38681 ft | 485 kts | 109° |
| 2026-04-10 11:19 | 65.84872 | -39.11341 | 38664 ft | 485 kts | 109° |
| 2026-04-10 11:19 | 65.82702 | -38.95732 | 38668 ft | 485 kts | 109° |
| 2026-04-10 11:20 | 65.80513 | -38.80130 | 38658 ft | 485 kts | 109° |
| 2026-04-10 11:20 | 65.79915 | -38.75890 | 38659 ft | 485 kts | 109° |
| 2026-04-10 11:21 | 65.77709 | -38.60345 | 38648 ft | 485 kts | 109° |
| 2026-04-10 11:21 | 65.75501 | -38.44924 | 38643 ft | 485 kts | 110° |
| 2026-04-10 11:22 | 65.73264 | -38.29427 | 38641 ft | 485 kts | 110° |
| 2026-04-10 11:22 | 65.71010 | -38.13954 | 38635 ft | 485 kts | 110° |
| 2026-04-10 11:23 | 65.68743 | -37.98529 | 38627 ft | 485 kts | 110° |
| 2026-04-10 11:23 | 65.66461 | -37.83127 | 38631 ft | 485 kts | 110° |
| 2026-04-10 11:24 | 65.64163 | -37.67751 | 38624 ft | 485 kts | 110° |
| 2026-04-10 11:24 | 65.61865 | -37.52501 | 38615 ft | 485 kts | 110° |
| 2026-04-10 11:25 | 65.59539 | -37.37191 | 38609 ft | 485 kts | 110° |
| 2026-04-10 11:25 | 65.57199 | -37.21908 | 38611 ft | 485 kts | 111° |
| 2026-04-10 11:26 | 65.54909 | -37.06582 | 38608 ft | 485 kts | 110° |
| 2026-04-10 11:26 | 65.52675 | -36.91213 | 38610 ft | 485 kts | 110° |
| 2026-04-10 11:27 | 65.50422 | -36.75845 | 38617 ft | 486 kts | 110° |
| 2026-04-10 11:27 | 65.48145 | -36.60528 | 38625 ft | 486 kts | 110° |
| 2026-04-10 11:28 | 65.45845 | -36.45239 | 38629 ft | 486 kts | 110° |
| 2026-04-10 11:28 | 65.43528 | -36.29969 | 38630 ft | 486 kts | 110° |
| 2026-04-10 11:29 | 65.41201 | -36.14753 | 38619 ft | 485 kts | 111° |
| 2026-04-10 11:29 | 65.38855 | -35.99539 | 38623 ft | 486 kts | 111° |
| 2026-04-10 11:30 | 65.36503 | -35.84404 | 38612 ft | 488 kts | 111° |
| 2026-04-10 11:30 | 65.34116 | -35.69187 | 38601 ft | 487 kts | 111° |
| 2026-04-10 11:31 | 65.31721 | -35.54041 | 38589 ft | 485 kts | 111° |
| 2026-04-10 11:31 | 65.29318 | -35.38965 | 38579 ft | 486 kts | 110° |
| 2026-04-10 11:32 | 65.26895 | -35.23883 | 38569 ft | 487 kts | 110° |
| 2026-04-10 11:32 | 65.24451 | -35.08786 | 38559 ft | 487 kts | 110° |
| 2026-04-10 11:33 | 65.21992 | -34.93726 | 38550 ft | 488 kts | 110° |
| 2026-04-10 11:33 | 65.19532 | -34.78782 | 38540 ft | 486 kts | 110° |
| 2026-04-10 11:34 | 65.17036 | -34.63733 | 38539 ft | 486 kts | 111° |
| 2026-04-10 11:34 | 65.14553 | -34.48876 | 38526 ft | 487 kts | 111° |
| 2026-04-10 11:35 | 65.12036 | -34.33933 | 38519 ft | 487 kts | 111° |
| 2026-04-10 11:35 | 65.09504 | -34.19016 | 38509 ft | 487 kts | 111° |
| 2026-04-10 11:36 | 65.07383 | -34.06615 | 38505 ft | 488 kts | 111° |
| 2026-04-10 11:36 | 65.04822 | -33.91751 | 38491 ft | 486 kts | 111° |
| 2026-04-10 11:37 | 65.02252 | -33.76942 | 38492 ft | 487 kts | 111° |
| 2026-04-10 11:37 | 64.99662 | -33.62130 | 38483 ft | 487 kts | 111° |
| 2026-04-10 11:38 | 64.97067 | -33.47401 | 38471 ft | 483 kts | 111° |
| 2026-04-10 11:38 | 64.94469 | -33.32770 | 38467 ft | 484 kts | 112° |
| 2026-04-10 11:39 | 64.91866 | -33.18212 | 38467 ft | 484 kts | 112° |
| 2026-04-10 11:39 | 64.89245 | -33.03661 | 38458 ft | 481 kts | 112° |
| 2026-04-10 11:40 | 64.86622 | -32.89213 | 38463 ft | 480 kts | 112° |
| 2026-04-10 11:40 | 64.83988 | -32.74801 | 38465 ft | 478 kts | 112° |
| 2026-04-10 11:41 | 64.81350 | -32.60476 | 38470 ft | 478 kts | 112° |
| 2026-04-10 11:41 | 64.78695 | -32.46165 | 38474 ft | 477 kts | 112° |
| 2026-04-10 11:42 | 64.76036 | -32.31930 | 38478 ft | 476 kts | 113° |
| 2026-04-10 11:42 | 64.73367 | -32.17742 | 38485 ft | 476 kts | 113° |
| 2026-04-10 11:43 | 64.70710 | -32.03712 | 38494 ft | 473 kts | 113° |
| 2026-04-10 11:43 | 64.68045 | -31.89742 | 38496 ft | 465 kts | 113° |
| 2026-04-10 11:44 | 64.65398 | -31.75956 | 38505 ft | 467 kts | 113° |
| 2026-04-10 11:44 | 64.62718 | -31.62097 | 38509 ft | 469 kts | 113° |
| 2026-04-10 11:45 | 64.60018 | -31.48231 | 38521 ft | 471 kts | 114° |
| 2026-04-10 11:45 | 64.57294 | -31.34336 | 38517 ft | 472 kts | 114° |
| 2026-04-10 11:46 | 64.54560 | -31.20480 | 38526 ft | 472 kts | 114° |
| 2026-04-10 11:46 | 64.51804 | -31.06611 | 38513 ft | 472 kts | 114° |
| 2026-04-10 11:47 | 64.49058 | -30.92880 | 38532 ft | 472 kts | 114° |
| 2026-04-10 11:47 | 64.46277 | -30.79072 | 38537 ft | 472 kts | 114° |
| 2026-04-10 11:48 | 64.43485 | -30.65298 | 38542 ft | 472 kts | 114° |
| 2026-04-10 11:48 | 64.40685 | -30.51576 | 38551 ft | 471 kts | 115° |
| 2026-04-10 11:49 | 64.37871 | -30.37872 | 38539 ft | 472 kts | 115° |
| 2026-04-10 11:49 | 64.35049 | -30.24220 | 38557 ft | 471 kts | 115° |
| 2026-04-10 11:50 | 64.32227 | -30.10641 | 38544 ft | 473 kts | 115° |
| 2026-04-10 11:50 | 64.29276 | -29.97184 | 38567 ft | 470 kts | 121° |
| 2026-04-10 11:51 | 64.25741 | -29.84452 | 38569 ft | 474 kts | 122° |
| 2026-04-10 11:51 | 64.22128 | -29.71716 | 38559 ft | 474 kts | 122° |
| 2026-04-10 11:52 | 64.18548 | -29.59069 | 38580 ft | 472 kts | 122° |
| 2026-04-10 11:52 | 64.14965 | -29.46410 | 38583 ft | 474 kts | 122° |
| 2026-04-10 11:53 | 64.11363 | -29.33735 | 38571 ft | 475 kts | 122° |
| 2026-04-10 11:53 | 64.07787 | -29.21226 | 38574 ft | 471 kts | 122° |
| 2026-04-10 11:54 | 64.04178 | -29.08676 | 38583 ft | 475 kts | 123° |
| 2026-04-10 11:54 | 64.00532 | -28.96068 | 38601 ft | 478 kts | 123° |
| 2026-04-10 11:55 | 63.96846 | -28.83394 | 38589 ft | 481 kts | 123° |
| 2026-04-10 11:55 | 63.93128 | -28.70681 | 38595 ft | 483 kts | 123° |
| 2026-04-10 11:56 | 63.89385 | -28.57958 | 38595 ft | 485 kts | 123° |
| 2026-04-10 11:56 | 63.85621 | -28.45232 | 38594 ft | 486 kts | 123° |
| 2026-04-10 11:57 | 63.81846 | -28.32542 | 38593 ft | 485 kts | 123° |
| 2026-04-10 11:57 | 63.78060 | -28.19886 | 38596 ft | 485 kts | 124° |
| 2026-04-10 11:58 | 63.74294 | -28.07367 | 38596 ft | 484 kts | 124° |
| 2026-04-10 11:58 | 63.70498 | -27.94818 | 38600 ft | 483 kts | 124° |
| 2026-04-10 11:59 | 63.66702 | -27.82339 | 38604 ft | 482 kts | 124° |
| 2026-04-10 11:59 | 63.62900 | -27.69908 | 38608 ft | 481 kts | 124° |
| 2026-04-10 12:00 | 63.59119 | -27.57612 | 38604 ft | 480 kts | 124° |
| 2026-04-10 12:00 | 63.55308 | -27.45287 | 38606 ft | 480 kts | 124° |
| 2026-04-10 12:01 | 63.51493 | -27.33013 | 38607 ft | 480 kts | 125° |
| 2026-04-10 12:01 | 63.47666 | -27.20767 | 38613 ft | 480 kts | 125° |
| 2026-04-10 12:02 | 63.43825 | -27.08543 | 38615 ft | 480 kts | 125° |
| 2026-04-10 12:02 | 63.39977 | -26.96351 | 38612 ft | 480 kts | 125° |
| 2026-04-10 12:03 | 63.36162 | -26.84121 | 38617 ft | 481 kts | 124° |
| 2026-04-10 12:03 | 63.32483 | -26.71662 | 38617 ft | 481 kts | 123° |
| 2026-04-10 12:04 | 63.28845 | -26.59281 | 38617 ft | 482 kts | 123° |
| 2026-04-10 12:04 | 63.25145 | -26.46842 | 38621 ft | 482 kts | 124° |
| 2026-04-10 12:05 | 63.21418 | -26.34448 | 38625 ft | 482 kts | 124° |
| 2026-04-10 12:05 | 63.17678 | -26.22100 | 38624 ft | 483 kts | 124° |
| 2026-04-10 12:06 | 63.13922 | -26.09763 | 38624 ft | 483 kts | 124° |
| 2026-04-10 12:06 | 63.10159 | -25.97468 | 38623 ft | 483 kts | 124° |
| 2026-04-10 12:07 | 63.04522 | -25.79169 | 38621 ft | 483 kts | 125° |
| 2026-04-10 12:08 | 63.00735 | -25.66958 | 38623 ft | 483 kts | 125° |
| 2026-04-10 12:08 | 62.96932 | -25.54761 | 38625 ft | 483 kts | 125° |
| 2026-04-10 12:09 | 62.93126 | -25.42618 | 38640 ft | 483 kts | 125° |
| 2026-04-10 12:09 | 62.89310 | -25.30512 | 38637 ft | 483 kts | 126° |
| 2026-04-10 12:10 | 62.85478 | -25.18416 | 38625 ft | 483 kts | 126° |
| 2026-04-10 12:10 | 62.81639 | -25.06364 | 38640 ft | 483 kts | 126° |
| 2026-04-10 12:11 | 62.77784 | -24.94327 | 38640 ft | 483 kts | 126° |
| 2026-04-10 12:11 | 62.73914 | -24.82305 | 38622 ft | 484 kts | 126° |
| 2026-04-10 12:12 | 62.70033 | -24.70312 | 38638 ft | 484 kts | 126° |
| 2026-04-10 12:12 | 62.66165 | -24.58422 | 38633 ft | 485 kts | 127° |
| 2026-04-10 12:13 | 62.62261 | -24.46482 | 38636 ft | 485 kts | 127° |
| 2026-04-10 12:13 | 62.58333 | -24.34535 | 38634 ft | 485 kts | 127° |
| 2026-04-10 12:14 | 62.54399 | -24.22630 | 38641 ft | 485 kts | 127° |
| 2026-04-10 12:14 | 62.50477 | -24.10822 | 38639 ft | 486 kts | 127° |
| 2026-04-10 12:15 | 62.46523 | -23.98980 | 38638 ft | 486 kts | 127° |
| 2026-04-10 12:15 | 62.42559 | -23.87169 | 38637 ft | 486 kts | 127° |
| 2026-04-10 12:16 | 62.38579 | -23.75373 | 38639 ft | 486 kts | 127° |
| 2026-04-10 12:16 | 62.34591 | -23.63613 | 38636 ft | 486 kts | 128° |
| 2026-04-10 12:17 | 62.30588 | -23.51870 | 38641 ft | 486 kts | 128° |
| 2026-04-10 12:17 | 62.26579 | -23.40168 | 38640 ft | 486 kts | 128° |
| 2026-04-10 12:18 | 62.22589 | -23.28581 | 38636 ft | 486 kts | 128° |
| 2026-04-10 12:18 | 62.18564 | -23.16953 | 38639 ft | 485 kts | 128° |
| 2026-04-10 12:19 | 62.14534 | -23.05368 | 38639 ft | 485 kts | 128° |
| 2026-04-10 12:19 | 62.10496 | -22.93818 | 38639 ft | 485 kts | 128° |
| 2026-04-10 12:20 | 62.06449 | -22.82301 | 38639 ft | 484 kts | 128° |
| 2026-04-10 12:20 | 62.02395 | -22.70822 | 38639 ft | 484 kts | 129° |
| 2026-04-10 12:21 | 61.98359 | -22.59452 | 38636 ft | 484 kts | 129° |
| 2026-04-10 12:21 | 61.94296 | -22.48063 | 38636 ft | 483 kts | 129° |
| 2026-04-10 12:22 | 61.90223 | -22.36701 | 38640 ft | 483 kts | 129° |
| 2026-04-10 12:22 | 61.86150 | -22.25395 | 38642 ft | 482 kts | 129° |
| 2026-04-10 12:23 | 61.82068 | -22.14120 | 38638 ft | 482 kts | 129° |
| 2026-04-10 12:23 | 61.77981 | -22.02888 | 38637 ft | 481 kts | 129° |
| 2026-04-10 12:24 | 61.73913 | -21.91762 | 38640 ft | 481 kts | 130° |
| 2026-04-10 12:24 | 61.69820 | -21.80620 | 38637 ft | 480 kts | 130° |
| 2026-04-10 12:25 | 61.65712 | -21.69495 | 38636 ft | 480 kts | 130° |
| 2026-04-10 12:25 | 61.61614 | -21.58446 | 38639 ft | 479 kts | 130° |
| 2026-04-10 12:26 | 61.57509 | -21.47436 | 38637 ft | 478 kts | 130° |
| 2026-04-10 12:26 | 61.54093 | -21.38312 | 38640 ft | 478 kts | 130° |
| 2026-04-10 12:27 | 61.49982 | -21.27379 | 38639 ft | 477 kts | 130° |
| 2026-04-10 12:27 | 61.45867 | -21.16488 | 38641 ft | 477 kts | 131° |
| 2026-04-10 12:28 | 61.41743 | -21.05627 | 38638 ft | 477 kts | 131° |
| 2026-04-10 12:28 | 61.37608 | -20.94786 | 38640 ft | 476 kts | 131° |
| 2026-04-10 12:29 | 61.33491 | -20.84043 | 38639 ft | 476 kts | 131° |
| 2026-04-10 12:29 | 61.29344 | -20.73274 | 38636 ft | 476 kts | 131° |
| 2026-04-10 12:30 | 61.25187 | -20.62528 | 38635 ft | 476 kts | 131° |
| 2026-04-10 12:30 | 61.21026 | -20.51823 | 38634 ft | 476 kts | 131° |
| 2026-04-10 12:31 | 61.16854 | -20.41140 | 38637 ft | 477 kts | 132° |
| 2026-04-10 12:31 | 61.12698 | -20.30546 | 38636 ft | 477 kts | 132° |
| 2026-04-10 12:32 | 61.08505 | -20.19908 | 38631 ft | 477 kts | 132° |
| 2026-04-10 12:32 | 61.04304 | -20.09298 | 38632 ft | 477 kts | 132° |
| 2026-04-10 12:33 | 61.00090 | -19.98705 | 38632 ft | 478 kts | 132° |
| 2026-04-10 12:33 | 60.95861 | -19.88123 | 38632 ft | 478 kts | 133° |
| 2026-04-10 12:34 | 60.91626 | -19.77575 | 38626 ft | 478 kts | 133° |
| 2026-04-10 12:34 | 60.87380 | -19.67049 | 38633 ft | 478 kts | 133° |
| 2026-04-10 12:35 | 60.83126 | -19.56550 | 38623 ft | 478 kts | 133° |
| 2026-04-10 12:35 | 60.78861 | -19.46073 | 38636 ft | 478 kts | 133° |
| 2026-04-10 12:36 | 60.74591 | -19.35632 | 38631 ft | 478 kts | 133° |
| 2026-04-10 12:36 | 60.70309 | -19.25208 | 38630 ft | 479 kts | 133° |
| 2026-04-10 12:37 | 60.66045 | -19.14876 | 38623 ft | 479 kts | 133° |
| 2026-04-10 12:37 | 60.61748 | -19.04511 | 38621 ft | 479 kts | 134° |
| 2026-04-10 12:38 | 60.57441 | -18.94166 | 38619 ft | 479 kts | 134° |
| 2026-04-10 12:38 | 60.53124 | -18.83847 | 38620 ft | 479 kts | 134° |
| 2026-04-10 12:39 | 60.48798 | -18.73552 | 38614 ft | 479 kts | 134° |
| 2026-04-10 12:39 | 60.44472 | -18.63303 | 38615 ft | 479 kts | 134° |
| 2026-04-10 12:40 | 60.40161 | -18.53135 | 38611 ft | 479 kts | 134° |
| 2026-04-10 12:40 | 60.35813 | -18.42926 | 38610 ft | 479 kts | 134° |
| 2026-04-10 12:41 | 60.31461 | -18.32752 | 38610 ft | 479 kts | 134° |
| 2026-04-10 12:41 | 60.27099 | -18.22601 | 38603 ft | 479 kts | 134° |
| 2026-04-10 12:42 | 60.22726 | -18.12468 | 38600 ft | 478 kts | 134° |
| 2026-04-10 12:42 | 60.18356 | -18.02388 | 38603 ft | 478 kts | 135° |
| 2026-04-10 12:43 | 60.13973 | -17.92322 | 38598 ft | 478 kts | 135° |
| 2026-04-10 12:43 | 60.09583 | -17.82283 | 38596 ft | 478 kts | 135° |
| 2026-04-10 12:44 | 60.05187 | -17.72276 | 38597 ft | 478 kts | 135° |
| 2026-04-10 12:44 | 60.00811 | -17.62358 | 38591 ft | 478 kts | 135° |
| 2026-04-10 12:45 | 59.96404 | -17.52412 | 38593 ft | 478 kts | 135° |
| 2026-04-10 12:45 | 59.91986 | -17.42486 | 38588 ft | 478 kts | 135° |
| 2026-04-10 12:46 | 59.87565 | -17.32595 | 38583 ft | 478 kts | 135° |
| 2026-04-10 12:46 | 59.83139 | -17.22736 | 38595 ft | 477 kts | 136° |
| 2026-04-10 12:47 | 59.78710 | -17.12912 | 38585 ft | 477 kts | 136° |
| 2026-04-10 12:47 | 59.74276 | -17.03121 | 38575 ft | 477 kts | 136° |
| 2026-04-10 12:48 | 59.69834 | -16.93354 | 38577 ft | 477 kts | 136° |
| 2026-04-10 12:48 | 59.65410 | -16.83667 | 38574 ft | 477 kts | 136° |
| 2026-04-10 12:49 | 59.60952 | -16.73948 | 38569 ft | 477 kts | 136° |
| 2026-04-10 12:49 | 59.56475 | -16.64228 | 38564 ft | 477 kts | 136° |
| 2026-04-10 12:50 | 59.52002 | -16.54560 | 38562 ft | 477 kts | 136° |
| 2026-04-10 12:50 | 59.47518 | -16.44907 | 38561 ft | 478 kts | 136° |
| 2026-04-10 12:51 | 59.43023 | -16.35272 | 38565 ft | 478 kts | 137° |
| 2026-04-10 12:51 | 59.38522 | -16.25664 | 38558 ft | 478 kts | 137° |
| 2026-04-10 12:52 | 59.34044 | -16.16147 | 38555 ft | 477 kts | 137° |
| 2026-04-10 12:52 | 59.29531 | -16.06595 | 38551 ft | 477 kts | 137° |
| 2026-04-10 12:53 | 59.25016 | -15.97078 | 38548 ft | 477 kts | 137° |
| 2026-04-10 12:53 | 59.20494 | -15.87587 | 38549 ft | 476 kts | 137° |
| 2026-04-10 12:54 | 59.15982 | -15.78154 | 38544 ft | 475 kts | 137° |
| 2026-04-10 12:54 | 59.11466 | -15.68756 | 38543 ft | 474 kts | 137° |
| 2026-04-10 12:55 | 59.06983 | -15.59461 | 38539 ft | 473 kts | 138° |
| 2026-04-10 12:55 | 59.02473 | -15.50152 | 38537 ft | 472 kts | 138° |
| 2026-04-10 12:56 | 58.97962 | -15.40876 | 38533 ft | 472 kts | 138° |
| 2026-04-10 12:56 | 58.93452 | -15.31640 | 38526 ft | 471 kts | 138° |
| 2026-04-10 12:57 | 58.88973 | -15.22507 | 38522 ft | 470 kts | 138° |
| 2026-04-10 12:57 | 58.84473 | -15.13367 | 38520 ft | 469 kts | 139° |
| 2026-04-10 12:58 | 58.79970 | -15.04257 | 38520 ft | 469 kts | 139° |
| 2026-04-10 12:58 | 58.75461 | -14.95173 | 38517 ft | 468 kts | 139° |
| 2026-04-10 12:59 | 58.70952 | -14.86124 | 38514 ft | 468 kts | 139° |
| 2026-04-10 12:59 | 58.66437 | -14.77100 | 38511 ft | 468 kts | 139° |
| 2026-04-10 13:00 | 58.61921 | -14.68109 | 38510 ft | 467 kts | 139° |
| 2026-04-10 13:00 | 58.57428 | -14.59199 | 38510 ft | 467 kts | 139° |
| 2026-04-10 13:01 | 58.52900 | -14.50254 | 38509 ft | 467 kts | 139° |
| 2026-04-10 13:01 | 58.48370 | -14.41343 | 38507 ft | 467 kts | 139° |
| 2026-04-10 13:02 | 58.43837 | -14.32460 | 38499 ft | 467 kts | 140° |
| 2026-04-10 13:02 | 58.39295 | -14.23594 | 38499 ft | 467 kts | 140° |
| 2026-04-10 13:03 | 58.34744 | -14.14745 | 38502 ft | 467 kts | 140° |
| 2026-04-10 13:03 | 58.30213 | -14.05970 | 38496 ft | 468 kts | 140° |
| 2026-04-10 13:04 | 58.25642 | -13.97153 | 38494 ft | 468 kts | 140° |
| 2026-04-10 13:04 | 58.21058 | -13.88346 | 38494 ft | 469 kts | 140° |
| 2026-04-10 13:05 | 58.16459 | -13.79541 | 38489 ft | 470 kts | 140° |
| 2026-04-10 13:05 | 58.11883 | -13.70813 | 38485 ft | 471 kts | 140° |
| 2026-04-10 13:06 | 58.07255 | -13.62022 | 38491 ft | 471 kts | 140° |
| 2026-04-10 13:06 | 58.02622 | -13.53258 | 38486 ft | 472 kts | 141° |
| 2026-04-10 13:07 | 57.97969 | -13.44491 | 38486 ft | 473 kts | 141° |
| 2026-04-10 13:07 | 57.93305 | -13.35733 | 38487 ft | 473 kts | 141° |
| 2026-04-10 13:08 | 57.88622 | -13.26974 | 38482 ft | 474 kts | 141° |
| 2026-04-10 13:08 | 57.83966 | -13.18300 | 38483 ft | 475 kts | 141° |
| 2026-04-10 13:09 | 57.76910 | -13.05220 | 38481 ft | 476 kts | 141° |
| 2026-04-10 13:09 | 57.72191 | -12.96515 | 38481 ft | 476 kts | 141° |
| 2026-04-10 13:10 | 57.67464 | -12.87828 | 38481 ft | 476 kts | 141° |
| 2026-04-10 13:10 | 57.62729 | -12.79157 | 38481 ft | 476 kts | 141° |
| 2026-04-10 13:11 | 57.57989 | -12.70514 | 38485 ft | 476 kts | 142° |
| 2026-04-10 13:11 | 57.53271 | -12.61945 | 38485 ft | 476 kts | 142° |
| 2026-04-10 13:12 | 57.48523 | -12.53346 | 38488 ft | 476 kts | 142° |
| 2026-04-10 13:12 | 57.43768 | -12.44781 | 38498 ft | 476 kts | 142° |
| 2026-04-10 13:13 | 57.39006 | -12.36227 | 38493 ft | 476 kts | 142° |
| 2026-04-10 13:13 | 57.34237 | -12.27696 | 38493 ft | 476 kts | 142° |
| 2026-04-10 13:14 | 57.29463 | -12.19189 | 38491 ft | 477 kts | 142° |
| 2026-04-10 13:14 | 57.24682 | -12.10699 | 38496 ft | 477 kts | 142° |
| 2026-04-10 13:15 | 57.19922 | -12.02278 | 38498 ft | 477 kts | 142° |
| 2026-04-10 13:15 | 57.15128 | -11.93833 | 38503 ft | 477 kts | 142° |
| 2026-04-10 13:16 | 57.11128 | -11.86810 | 38516 ft | 477 kts | 142° |
| 2026-04-10 13:16 | 57.06316 | -11.78388 | 38514 ft | 478 kts | 143° |
| 2026-04-10 13:17 | 57.01492 | -11.69976 | 38511 ft | 479 kts | 143° |
| 2026-04-10 13:17 | 56.96651 | -11.61569 | 38512 ft | 479 kts | 143° |
| 2026-04-10 13:18 | 56.91804 | -11.53180 | 38519 ft | 479 kts | 143° |
| 2026-04-10 13:18 | 56.86942 | -11.44799 | 38521 ft | 480 kts | 143° |
| 2026-04-10 13:19 | 56.82074 | -11.36439 | 38529 ft | 480 kts | 143° |
| 2026-04-10 13:19 | 56.77199 | -11.28098 | 38530 ft | 481 kts | 143° |
| 2026-04-10 13:20 | 56.72309 | -11.19762 | 38533 ft | 481 kts | 143° |
| 2026-04-10 13:20 | 56.67441 | -11.11494 | 38536 ft | 482 kts | 143° |
| 2026-04-10 13:21 | 56.62532 | -11.03190 | 38544 ft | 482 kts | 143° |
| 2026-04-10 13:21 | 56.57609 | -10.94891 | 38562 ft | 483 kts | 143° |
| 2026-04-10 13:22 | 56.52672 | -10.86600 | 38560 ft | 484 kts | 143° |
| 2026-04-10 13:22 | 56.48284 | -10.79255 | 38541 ft | 484 kts | 144° |
| 2026-04-10 13:23 | 56.43330 | -10.70992 | 38564 ft | 484 kts | 144° |
| 2026-04-10 13:23 | 56.38372 | -10.62755 | 38565 ft | 484 kts | 144° |
| 2026-04-10 13:24 | 56.33445 | -10.54598 | 38563 ft | 483 kts | 144° |
| 2026-04-10 13:24 | 56.28487 | -10.46420 | 38572 ft | 483 kts | 144° |
| 2026-04-10 13:25 | 56.23527 | -10.38268 | 38580 ft | 483 kts | 144° |
| 2026-04-10 13:25 | 56.18558 | -10.30133 | 38587 ft | 483 kts | 144° |
| 2026-04-10 13:26 | 56.13583 | -10.22017 | 38593 ft | 484 kts | 144° |
| 2026-04-10 13:26 | 56.08595 | -10.13904 | 38597 ft | 484 kts | 144° |
| 2026-04-10 13:27 | 56.03635 | -10.05829 | 38600 ft | 486 kts | 142° |
| 2026-04-10 13:27 | 56.01444 | -10.01153 | 38602 ft | 498 kts | 129° |
| 2026-04-10 13:27 | 55.99796 | -9.95889 | 38616 ft | 508 kts | 120° |
| 2026-04-10 13:28 | 55.98636 | -9.89882 | 38611 ft | 517 kts | 108° |
| 2026-04-10 13:28 | 55.97893 | -9.83581 | 38632 ft | 520 kts | 106° |
| 2026-04-10 13:28 | 55.96574 | -9.70854 | 38634 ft | 522 kts | 105° |
| 2026-04-10 13:29 | 55.95219 | -9.58099 | 38647 ft | 524 kts | 106° |
| 2026-04-10 13:29 | 55.93768 | -9.45339 | 38656 ft | 525 kts | 107° |
| 2026-04-10 13:30 | 55.92269 | -9.32582 | 38662 ft | 526 kts | 107° |
| 2026-04-10 13:30 | 55.90756 | -9.19830 | 38670 ft | 526 kts | 107° |
| 2026-04-10 13:31 | 55.89234 | -9.07080 | 38679 ft | 525 kts | 107° |
| 2026-04-10 13:31 | 55.87703 | -8.94356 | 38686 ft | 525 kts | 107° |
| 2026-04-10 13:32 | 55.86158 | -8.81636 | 38306 ft | 529 kts | 107° |
| 2026-04-10 13:32 | 55.85382 | -8.75304 | 37647 ft | 530 kts | 107° |
| 2026-04-10 13:32 | 55.84597 | -8.68903 | 36987 ft | 528 kts | 108° |
| 2026-04-10 13:33 | 55.83810 | -8.62513 | 36239 ft | 529 kts | 109° |
| 2026-04-10 13:33 | 55.83011 | -8.56086 | 35343 ft | 534 kts | 109° |
| 2026-04-10 13:33 | 55.82204 | -8.49620 | 34541 ft | 537 kts | 110° |
| 2026-04-10 13:33 | 55.81389 | -8.43121 | 33762 ft | 540 kts | 111° |
| 2026-04-10 13:34 | 55.80564 | -8.36576 | 32825 ft | 543 kts | 111° |
| 2026-04-10 13:34 | 55.79737 | -8.30032 | 31936 ft | 544 kts | 111° |
| 2026-04-10 13:34 | 55.78906 | -8.23477 | 31058 ft | 543 kts | 111° |
| 2026-04-10 13:34 | 55.78073 | -8.16924 | 30160 ft | 543 kts | 112° |
| 2026-04-10 13:35 | 55.77243 | -8.10414 | 29506 ft | 536 kts | 112° |
| 2026-04-10 13:35 | 55.76426 | -8.04010 | 28885 ft | 527 kts | 112° |
| 2026-04-10 13:35 | 55.75618 | -7.97713 | 28319 ft | 518 kts | 112° |
| 2026-04-10 13:35 | 55.74819 | -7.91533 | 27774 ft | 510 kts | 112° |
| 2026-04-10 13:36 | 55.74024 | -7.85433 | 27235 ft | 503 kts | 111° |
| 2026-04-10 13:36 | 55.73236 | -7.79423 | 26700 ft | 496 kts | 111° |
| 2026-04-10 13:36 | 55.72457 | -7.73509 | 26157 ft | 490 kts | 111° |
| 2026-04-10 13:36 | 55.71682 | -7.67655 | 25635 ft | 484 kts | 111° |
| 2026-04-10 13:37 | 55.70924 | -7.61953 | 25122 ft | 479 kts | 111° |
| 2026-04-10 13:37 | 55.70153 | -7.56171 | 24595 ft | 473 kts | 111° |
| 2026-04-10 13:37 | 55.69408 | -7.50595 | 24096 ft | 469 kts | 110° |
| 2026-04-10 13:37 | 55.68657 | -7.45004 | 23578 ft | 464 kts | 110° |
| 2026-04-10 13:38 | 55.67910 | -7.39460 | 23015 ft | 460 kts | 110° |
| 2026-04-10 13:38 | 55.67169 | -7.33974 | 22450 ft | 455 kts | 110° |
| 2026-04-10 13:38 | 55.66433 | -7.28543 | 21929 ft | 450 kts | 110° |
| 2026-04-10 13:38 | 55.65705 | -7.23187 | 21422 ft | 445 kts | 110° |
| 2026-04-10 13:39 | 55.64981 | -7.17887 | 20910 ft | 440 kts | 109° |
| 2026-04-10 13:39 | 55.64264 | -7.12656 | 20414 ft | 436 kts | 109° |
| 2026-04-10 13:39 | 55.63550 | -7.07466 | 19926 ft | 431 kts | 109° |
| 2026-04-10 13:39 | 55.62843 | -7.02343 | 19417 ft | 427 kts | 109° |
| 2026-04-10 13:40 | 55.62139 | -6.97258 | 18931 ft | 423 kts | 109° |
| 2026-04-10 13:40 | 55.61440 | -6.92223 | 18424 ft | 420 kts | 108° |
| 2026-04-10 13:40 | 55.60746 | -6.87242 | 17915 ft | 416 kts | 108° |
| 2026-04-10 13:40 | 55.60057 | -6.82301 | 17374 ft | 412 kts | 108° |
| 2026-04-10 13:41 | 55.59373 | -6.77414 | 16868 ft | 407 kts | 108° |
| 2026-04-10 13:41 | 55.58691 | -6.72602 | 16388 ft | 397 kts | 110° |
| 2026-04-10 13:41 | 55.57617 | -6.68333 | 15913 ft | 378 kts | 130° |
| 2026-04-10 13:41 | 55.55829 | -6.65080 | 15440 ft | 363 kts | 147° |
| 2026-04-10 13:42 | 55.53701 | -6.62795 | 14930 ft | 355 kts | 159° |
| 2026-04-10 13:42 | 55.51402 | -6.61475 | 14422 ft | 344 kts | 168° |
| 2026-04-10 13:42 | 55.49087 | -6.60468 | 13944 ft | 341 kts | 168° |
| 2026-04-10 13:42 | 55.46785 | -6.59510 | 13421 ft | 338 kts | 168° |
| 2026-04-10 13:43 | 55.44503 | -6.58563 | 12890 ft | 335 kts | 168° |
| 2026-04-10 13:43 | 55.42245 | -6.57615 | 12391 ft | 332 kts | 168° |
| 2026-04-10 13:43 | 55.40015 | -6.56667 | 11913 ft | 328 kts | 168° |
| 2026-04-10 13:43 | 55.37811 | -6.55723 | 11431 ft | 325 kts | 168° |
| 2026-04-10 13:44 | 55.35616 | -6.54777 | 10957 ft | 324 kts | 168° |
| 2026-04-10 13:44 | 55.33447 | -6.53839 | 10747 ft | 316 kts | 168° |
| 2026-04-10 13:44 | 55.31350 | -6.52929 | 10597 ft | 304 kts | 168° |
| 2026-04-10 13:44 | 55.29342 | -6.52056 | 10467 ft | 292 kts | 168° |
| 2026-04-10 13:45 | 55.27407 | -6.51216 | 10333 ft | 280 kts | 168° |
| 2026-04-10 13:45 | 55.25560 | -6.50413 | 10224 ft | 268 kts | 168° |
| 2026-04-10 13:45 | 55.23789 | -6.49645 | 10112 ft | 256 kts | 169° |
| 2026-04-10 13:45 | 55.22097 | -6.48913 | 10013 ft | 245 kts | 169° |
| 2026-04-10 13:46 | 55.20473 | -6.48210 | 9909 ft | 235 kts | 169° |
| 2026-04-10 13:46 | 55.18924 | -6.47543 | 9708 ft | 234 kts | 169° |
| 2026-04-10 13:46 | 55.17289 | -6.46843 | 9451 ft | 244 kts | 169° |
| 2026-04-10 13:46 | 55.15646 | -6.46138 | 9140 ft | 248 kts | 169° |
| 2026-04-10 13:47 | 55.13979 | -6.45420 | 8825 ft | 245 kts | 168° |
| 2026-04-10 13:47 | 55.12339 | -6.44712 | 8513 ft | 240 kts | 168° |
| 2026-04-10 13:47 | 55.10733 | -6.44021 | 8222 ft | 235 kts | 168° |
| 2026-04-10 13:47 | 55.09163 | -6.43346 | 7933 ft | 230 kts | 168° |
| 2026-04-10 13:48 | 55.07633 | -6.42687 | 7654 ft | 224 kts | 168° |
| 2026-04-10 13:48 | 55.06135 | -6.42045 | 7383 ft | 221 kts | 168° |
| 2026-04-10 13:48 | 55.04637 | -6.41404 | 7118 ft | 223 kts | 168° |
| 2026-04-10 13:48 | 55.03112 | -6.40751 | 6862 ft | 227 kts | 168° |
| 2026-04-10 13:49 | 55.01579 | -6.40094 | 6581 ft | 225 kts | 168° |
| 2026-04-10 13:49 | 55.00068 | -6.39448 | 6303 ft | 223 kts | 168° |
| 2026-04-10 13:49 | 54.98561 | -6.38804 | 6019 ft | 224 kts | 168° |
| 2026-04-10 13:49 | 54.97049 | -6.38159 | 5752 ft | 223 kts | 168° |
| 2026-04-10 13:50 | 54.95540 | -6.37515 | 5449 ft | 223 kts | 168° |
| 2026-04-10 13:50 | 54.94065 | -6.36882 | 5331 ft | 214 kts | 168° |
| 2026-04-10 13:50 | 54.92602 | -6.36258 | 5039 ft | 218 kts | 168° |
| 2026-04-10 13:50 | 54.91131 | -6.35631 | 4654 ft | 222 kts | 168° |
| 2026-04-10 13:51 | 54.89636 | -6.34997 | 4346 ft | 219 kts | 168° |
| 2026-04-10 13:51 | 54.88167 | -6.34373 | 4060 ft | 215 kts | 168° |
| 2026-04-10 13:51 | 54.86729 | -6.33761 | 3819 ft | 210 kts | 167° |
| 2026-04-10 13:51 | 54.85346 | -6.33172 | 3728 ft | 199 kts | 167° |
| 2026-04-10 13:52 | 54.84041 | -6.32618 | 3623 ft | 186 kts | 167° |
| 2026-04-10 13:52 | 54.82828 | -6.32102 | 3527 ft | 172 kts | 167° |
| 2026-04-10 13:52 | 54.81697 | -6.31635 | 3391 ft | 161 kts | 168° |
| 2026-04-10 13:52 | 54.80622 | -6.31168 | 3197 ft | 158 kts | 165° |
| 2026-04-10 13:53 | 54.79580 | -6.30627 | 3024 ft | 153 kts | 164° |
| 2026-04-10 13:53 | 54.78608 | -6.30089 | 2759 ft | 140 kts | 163° |
| 2026-04-10 13:53 | 54.77714 | -6.29584 | 2569 ft | 135 kts | 162° |
| 2026-04-10 13:53 | 54.76800 | -6.29065 | 2466 ft | 144 kts | 162° |
| 2026-04-10 13:54 | 54.75799 | -6.28501 | 2260 ft | 157 kts | 161° |
| 2026-04-10 13:54 | 54.74723 | -6.27894 | 2037 ft | 167 kts | 161° |
| 2026-04-10 13:54 | 54.73607 | -6.27265 | 1815 ft | 165 kts | 161° |
| 2026-04-10 13:54 | 54.72572 | -6.26689 | 1634 ft | 146 kts | 162° |
| 2026-04-10 13:55 | 54.71603 | -6.26152 | 1228 ft | 149 kts | 160° |
| 2026-04-10 13:55 | 54.70608 | -6.25574 | 1061 ft | 151 kts | 161° |
| 2026-04-10 13:55 | 54.69663 | -6.25041 | 1131 ft | 140 kts | 161° |
| 2026-04-10 13:55 | 54.68695 | -6.24495 | 871 ft | 148 kts | 162° |
| 2026-04-10 13:56 | 54.67755 | -6.23960 | 678 ft | 137 kts | 161° |
| 2026-04-10 13:56 | 54.66919 | -6.23494 | 422 ft | 115 kts | 163° |
| 2026-04-10 13:56 | 54.66184 | -6.23063 | 315 ft | 111 kts | 163° |
| 2026-04-10 13:56 | 54.65516 | -6.22703 | 236 ft | 86 kts | 161° |
| 2026-04-10 13:57 | 54.65120 | -6.22483 | 239 ft | 34 kts | 162° |
| 2026-04-10 13:57 | 54.64892 | -6.22356 | 247 ft | 28 kts | 162° |
| 2026-04-10 13:57 | 54.64707 | -6.22253 | 253 ft | 28 kts | 162° |
| 2026-04-10 13:57 | 54.64544 | -6.22161 | 258 ft | 17 kts | 161° |
| 2026-04-10 13:58 | 54.64516 | -6.22100 | 259 ft | 5 kts | 72° |
| 2026-04-10 13:58 | 54.64548 | -6.22051 | 260 ft | 8 kts | 27° |
| 2026-04-10 13:58 | 54.64602 | -6.22042 | 259 ft | 0 kts | 352° |
| 2026-04-10 13:59 | 54.64648 | -6.22059 | 258 ft | 20 kts | 345° |
| 2026-04-10 13:59 | 54.64776 | -6.22129 | 253 ft | 18 kts | 342° |
| 2026-04-10 13:59 | 54.64866 | -6.22177 | 251 ft | 2 kts | 344° |
| 2026-04-10 14:00 | 54.64885 | -6.22187 | 250 ft | 4 kts | 344° |
| 2026-04-10 14:00 | 54.64947 | -6.22224 | 248 ft | 17 kts | 336° |
| 2026-04-10 14:00 | 54.65072 | -6.22297 | 244 ft | 20 kts | 354° |
| 2026-04-10 14:00 | 54.65182 | -6.22199 | 240 ft | 17 kts | 36° |
| 2026-04-10 14:01 | 54.65278 | -6.22076 | 239 ft | 18 kts | 37° |
| 2026-04-10 14:01 | 54.65376 | -6.21951 | 240 ft | 17 kts | 35° |
| 2026-04-10 14:01 | 54.65393 | -6.21932 | 241 ft | 2 kts | 33° |
| 2026-04-10 14:01 | 54.65405 | -6.21920 | 241 ft | 4 kts | 25° |
| 2026-04-10 14:02 | 54.65516 | -6.21837 | 243 ft | 23 kts | 28° |
| 2026-04-10 14:02 | 54.65623 | -6.21635 | 246 ft | 23 kts | 62° |
| 2026-04-10 14:02 | 54.65699 | -6.21390 | 251 ft | 23 kts | 70° |
| 2026-04-10 14:02 | 54.65751 | -6.21127 | 255 ft | 23 kts | 65° |
| 2026-04-10 14:03 | 54.65835 | -6.20923 | 258 ft | 18 kts | 24° |
| 2026-04-10 14:03 | 54.65928 | -6.20972 | 256 ft | 15 kts | 334° |
| 2026-04-10 14:03 | 54.65997 | -6.21038 | 258 ft | 15 kts | 330° |
| 2026-04-10 14:03 | 54.66021 | -6.21245 | 256 ft | 16 kts | 246° |
| 2026-04-10 14:04 | 54.65975 | -6.21422 | 253 ft | 17 kts | 246° |
| 2026-04-10 14:04 | 54.65937 | -6.21563 | 251 ft | 11 kts | 244° |
| 2026-04-10 14:04 | 54.65892 | -6.21728 | 248 ft | 22 kts | 244° |
| 2026-04-10 14:05 | 54.65878 | -6.22025 | 241 ft | 5 kts | 337° |
| 2026-04-10 14:05 | 54.65922 | -6.22057 | 240 ft | 8 kts | 335° |
| 2026-04-10 14:05 | 54.65952 | -6.22151 | 236 ft | 11 kts | 262° |
| 2026-04-10 14:05 | 54.65975 | -6.22263 | 237 ft | 9 kts | 334° |
| 2026-04-10 14:06 | 54.65987 | -6.22274 | 235 ft | 1 kts | 333° |
| 2026-04-10 14:06 | 54.65984 | -6.22272 | 234 ft | 0 kts | 333° |